Time;durP1;ratioP1;P1;durP2;ratioP2;P2;SDS_P1;SDS_P2;PMS_P1;PMS_P2;Temp;Humidity;BMP_temperature;BMP_pressure;BME280_temperature;BME280_humidity;BME280_pressure;Samples;Min_cycle;Max_cycle;Signal;HPM_P1;HPM_P2
2023/09/25 00:00:23;;;;;;;4.78;2.10;;;18.60;99.90;;;;;;4977886;28;20038;-80
2023/09/25 00:02:49;;;;;;;3.17;1.98;;;18.40;99.90;;;;;;4977394;28;20471;-81
2023/09/25 00:05:16;;;;;;;4.10;2.15;;;18.70;99.90;;;;;;4976560;28;20042;-80
2023/09/25 00:07:42;;;;;;;2.15;1.75;;;18.60;99.90;;;;;;4977567;28;20053;-80
2023/09/25 00:10:07;;;;;;;3.58;2.03;;;18.60;99.90;;;;;;4977225;28;20042;-80
2023/09/25 00:12:33;;;;;;;4.10;1.95;;;18.40;99.90;;;;;;4961346;28;20035;-81
2023/09/25 00:14:59;;;;;;;3.33;1.80;;;18.40;99.90;;;;;;4977478;28;20042;-80
2023/09/25 00:17:24;;;;;;;3.13;2.15;;;18.40;99.90;;;;;;4977271;28;20042;-80
2023/09/25 00:19:50;;;;;;;3.78;1.77;;;;;;;;;;4976714;28;20410;-80
2023/09/25 00:22:16;;;;;;;4.78;2.30;;;18.30;99.90;;;;;;4960622;28;20038;-79
2023/09/25 00:24:42;;;;;;;3.83;2.00;;;18.20;99.90;;;;;;4960713;28;20046;-81
2023/09/25 00:27:08;;;;;;;4.95;2.00;;;18.30;99.90;;;;;;4976774;28;20035;-80
2023/09/25 00:29:34;;;;;;;3.50;2.40;;;18.20;99.90;;;;;;4977008;28;20039;-80
2023/09/25 00:32:00;;;;;;;3.15;2.03;;;18.20;99.90;;;;;;4976886;28;20120;-80
2023/09/25 00:34:25;;;;;;;4.70;2.22;;;18.20;99.90;;;;;;4976692;28;20078;-80
2023/09/25 00:36:51;;;;;;;4.50;2.05;;;18.10;99.90;;;;;;4977051;28;20042;-80
2023/09/25 00:39:16;;;;;;;2.88;1.98;;;18.10;99.90;;;;;;4976445;28;20038;-80
2023/09/25 00:41:42;;;;;;;4.07;2.58;;;18.00;99.90;;;;;;4976290;28;20093;-80
2023/09/25 00:44:07;;;;;;;5.88;2.10;;;18.00;99.90;;;;;;4976785;28;20410;-81
2023/09/25 00:46:33;;;;;;;3.42;2.35;;;18.00;99.90;;;;;;4976791;28;20046;-81
2023/09/25 00:48:59;;;;;;;4.38;2.15;;;18.00;99.90;;;;;;4976432;28;20038;-80
2023/09/25 00:51:25;;;;;;;5.65;2.08;;;18.00;99.90;;;;;;4976462;28;20089;-80
2023/09/25 00:53:51;;;;;;;5.25;2.28;;;17.90;99.90;;;;;;4976424;28;20125;-80
2023/09/25 00:56:17;;;;;;;4.82;2.05;;;17.80;99.90;;;;;;4960561;28;20038;-80
2023/09/25 00:58:43;;;;;;;6.18;3.35;;;17.90;99.90;;;;;;4976179;28;20072;-80
2023/09/25 01:01:09;;;;;;;5.85;2.58;;;17.90;99.90;;;;;;4960235;28;20038;-80
2023/09/25 01:03:35;;;;;;;3.53;2.25;;;17.80;99.90;;;;;;4960135;28;20073;-81
2023/09/25 01:06:01;;;;;;;5.28;2.53;;;18.00;99.90;;;;;;4976204;28;20042;-80
2023/09/25 01:08:27;;;;;;;3.63;2.70;;;17.90;99.90;;;;;;4959838;28;20045;-80
2023/09/25 01:10:53;;;;;;;4.28;2.05;;;;;;;;;;4975960;28;20034;-80
2023/09/25 01:13:19;;;;;;;4.28;2.38;;;;;;;;;;4976457;28;20093;-79
2023/09/25 01:15:45;;;;;;;5.13;2.97;;;17.70;99.90;;;;;;4976006;28;20038;-79
2023/09/25 01:18:12;;;;;;;3.28;2.30;;;;;;;;;;4976419;28;20043;-80
2023/09/25 01:20:37;;;;;;;3.42;2.50;;;17.60;99.90;;;;;;4975978;28;20038;-80
2023/09/25 01:23:03;;;;;;;4.43;2.47;;;17.80;99.90;;;;;;4976038;28;20045;-80
2023/09/25 01:25:29;;;;;;;4.55;2.42;;;;;;;;;;4959794;28;20046;-80
2023/09/25 01:27:55;;;;;;;4.68;2.70;;;;;;;;;;4976539;28;20129;-80
2023/09/25 01:30:21;;;;;;;5.57;2.60;;;;;;;;;;4976068;28;20057;-81
2023/09/25 01:32:50;;;;;;;5.22;2.28;;;;;;;;;;4976206;28;20096;-81
2023/09/25 01:35:18;;;;;;;4.53;2.28;;;17.60;99.90;;;;;;4976232;28;20042;-79
2023/09/25 01:37:45;;;;;;;5.18;2.40;;;;;;;;;;4975837;28;20030;-79
2023/09/25 01:40:17;;;;;;;3.92;2.58;;;17.30;99.90;;;;;;4976020;28;20449;-80
2023/09/25 01:42:44;;;;;;;4.13;2.25;;;17.50;99.90;;;;;;4977603;28;20042;-80
2023/09/25 01:45:11;;;;;;;4.25;2.40;;;17.40;99.90;;;;;;4963334;28;20043;-80
2023/09/25 01:47:37;;;;;;;4.10;2.53;;;17.50;99.90;;;;;;4961596;28;20049;-80
2023/09/25 01:50:04;;;;;;;5.70;2.38;;;;;;;;;;4960962;28;20034;-80
2023/09/25 01:52:29;;;;;;;4.70;2.60;;;17.40;99.90;;;;;;4978419;28;20105;-80
2023/09/25 01:54:55;;;;;;;4.43;2.30;;;17.50;99.90;;;;;;4979222;28;20490;-80
2023/09/25 01:57:21;;;;;;;4.03;2.38;;;;;;;;;;4978486;28;20102;-81
2023/09/25 01:59:47;;;;;;;5.63;2.50;;;17.40;99.90;;;;;;4978860;28;20042;-80
2023/09/25 02:02:13;;;;;;;3.92;2.72;;;17.30;99.90;;;;;;4979511;28;20030;-80
2023/09/25 02:04:39;;;;;;;7.20;2.85;;;;;;;;;;4963121;28;20533;-81
2023/09/25 02:07:05;;;;;;;4.80;2.75;;;;;;;;;;4977875;28;20123;-80
2023/09/25 02:09:31;;;;;;;5.25;2.90;;;;;;;;;;4981379;28;20521;-80
2023/09/25 02:11:57;;;;;;;5.53;2.20;;;17.40;99.90;;;;;;4965016;28;20038;-80
2023/09/25 02:14:22;;;;;;;5.13;2.67;;;17.20;99.90;;;;;;4987049;28;20053;-80
2023/09/25 02:16:48;;;;;;;3.88;2.38;;;17.40;99.90;;;;;;4976816;28;20046;-79
2023/09/25 02:19:14;;;;;;;2.90;2.63;;;;;;;;;;4992004;28;20069;-79
2023/09/25 02:21:40;;;;;;;5.50;2.72;;;;;;;;;;4962279;28;20042;-79
2023/09/25 02:24:06;;;;;;;6.18;3.15;;;;;;;;;;4978543;28;20053;-80
2023/09/25 02:26:32;;;;;;;4.38;3.10;;;;;;;;;;4978807;28;20046;-79
2023/09/25 02:28:58;;;;;;;5.88;2.78;;;;;;;;;;4981671;28;20042;-80
2023/09/25 02:31:24;;;;;;;3.35;2.50;;;17.20;99.90;;;;;;4966632;28;20042;-80
2023/09/25 02:33:49;;;;;;;4.70;2.90;;;17.30;99.90;;;;;;4966238;28;20061;-80
2023/09/25 02:36:16;;;;;;;4.40;2.50;;;17.30;99.90;;;;;;4965589;28;20046;-79
2023/09/25 02:38:41;;;;;;;3.67;2.63;;;17.20;99.90;;;;;;4981152;28;20049;-79
2023/09/25 02:41:07;;;;;;;7.53;2.85;;;17.20;99.90;;;;;;4965258;28;20035;-80
2023/09/25 02:43:33;;;;;;;4.85;2.75;;;17.20;99.90;;;;;;4982057;28;20038;-80
2023/09/25 02:46:00;;;;;;;3.67;2.80;;;17.30;99.90;;;;;;4981166;28;20053;-79
2023/09/25 02:48:25;;;;;;;6.22;2.72;;;17.20;99.90;;;;;;4980975;28;20038;-79
2023/09/25 02:50:51;;;;;;;5.70;2.83;;;;;;;;;;4981755;28;20115;-79
2023/09/25 02:53:17;;;;;;;5.43;2.92;;;17.30;99.90;;;;;;4981846;28;20227;-80
2023/09/25 02:55:49;;;;;;;3.95;2.90;;;17.10;99.90;;;;;;4981343;28;20498;-80
2023/09/25 02:58:14;;;;;;;7.65;3.05;;;17.20;99.90;;;;;;4981224;28;20042;-78
2023/09/25 03:00:40;;;;;;;3.13;2.50;;;17.20;99.90;;;;;;4964971;28;20054;-80
2023/09/25 03:03:06;;;;;;;4.43;3.20;;;17.40;99.90;;;;;;4980732;28;20049;-80
2023/09/25 03:05:32;;;;;;;5.10;2.83;;;;;;;;;;4981361;28;20042;-79
2023/09/25 03:07:58;;;;;;;4.05;2.83;;;;;;;;;;4981102;28;20042;-79
2023/09/25 03:10:24;;;;;;;6.13;3.08;;;;;;;;;;4964660;28;20069;-79
2023/09/25 03:12:50;;;;;;;3.00;2.70;;;;;;;;;;4981164;28;20442;-80
2023/09/25 03:15:16;;;;;;;5.55;2.97;;;17.10;99.90;;;;;;4981128;28;20042;-80
2023/09/25 03:17:41;;;;;;;4.40;2.83;;;17.10;99.90;;;;;;4980719;28;20045;-79
2023/09/25 03:20:17;;;;;;;4.28;2.78;;;17.20;99.90;;;;;;4980296;28;20060;-80
2023/09/25 03:22:44;;;;;;;6.53;3.03;;;17.00;99.90;;;;;;4964159;28;20363;-79
2023/09/25 03:25:12;;;;;;;5.75;2.92;;;17.10;99.90;;;;;;4965056;28;20402;-79
2023/09/25 03:27:38;;;;;;;3.17;2.70;;;17.00;99.90;;;;;;4964361;28;20411;-80
2023/09/25 03:30:06;;;;;;;4.60;3.00;;;17.10;99.90;;;;;;4963713;28;20533;-79
2023/09/25 03:32:32;;;;;;;3.20;2.22;;;17.00;99.90;;;;;;4963658;28;20049;-79
2023/09/25 03:34:58;;;;;;;5.07;3.08;;;17.20;99.90;;;;;;4980073;28;20425;-80
2023/09/25 03:37:23;;;;;;;4.20;2.72;;;17.10;99.90;;;;;;4980259;28;20034;-79
2023/09/25 03:39:49;;;;;;;7.43;3.70;;;;;;;;;;4980405;28;20417;-80
2023/09/25 03:42:15;;;;;;;3.85;3.13;;;17.00;99.90;;;;;;4980352;28;20126;-80
2023/09/25 03:44:40;;;;;;;5.32;3.22;;;17.00;99.90;;;;;;4980730;28;20477;-79
2023/09/25 03:47:06;;;;;;;4.47;2.92;;;17.10;99.90;;;;;;4963378;28;20043;-80
2023/09/25 03:49:32;;;;;;;3.72;3.00;;;;;;;;;;4980153;28;20042;-79
2023/09/25 03:51:58;;;;;;;4.78;2.92;;;;;;;;;;4980370;28;20046;-80
2023/09/25 03:54:24;;;;;;;4.55;2.70;;;;;;;;;;4964877;28;20449;-79
2023/09/25 03:56:50;;;;;;;4.20;3.05;;;;;;;;;;4980451;28;20125;-78
2023/09/25 03:59:15;;;;;;;3.42;2.72;;;17.10;99.90;;;;;;4980418;28;20034;-80
2023/09/25 04:01:41;;;;;;;3.47;2.90;;;17.00;99.90;;;;;;4980720;28;20035;-80
2023/09/25 04:04:06;;;;;;;4.25;2.80;;;16.90;99.90;;;;;;4964354;28;20042;-79
2023/09/25 04:06:33;;;;;;;5.38;2.80;;;17.00;99.90;;;;;;4965360;28;20042;-80
2023/09/25 04:08:59;;;;;;;3.92;2.55;;;;;;;;;;4980022;28;20042;-79
2023/09/25 04:11:25;;;;;;;3.47;2.85;;;;;;;;;;4980105;28;20053;-80
2023/09/25 04:13:51;;;;;;;4.40;2.70;;;;;;;;;;4980675;28;20395;-80
2023/09/25 04:16:17;;;;;;;8.60;3.17;;;16.90;99.90;;;;;;4980333;28;20473;-79
2023/09/25 04:18:43;;;;;;;4.53;2.85;;;17.00;99.90;;;;;;4980546;28;20235;-79
2023/09/25 04:21:14;;;;;;;10.70;3.95;;;17.10;99.90;;;;;;4964306;28;20046;-79
2023/09/25 04:23:40;;;;;;;5.63;2.70;;;;;;;;;;4964611;28;20089;-79
2023/09/25 04:26:06;;;;;;;5.18;3.13;;;16.90;99.90;;;;;;4980226;28;20042;-78
2023/09/25 04:28:32;;;;;;;6.30;2.97;;;16.80;99.90;;;;;;4980878;28;20042;-79
2023/09/25 04:31:03;;;;;;;5.90;2.90;;;17.00;99.90;;;;;;4965420;28;20058;-80
2023/09/25 04:33:28;;;;;;;4.82;3.08;;;17.00;99.90;;;;;;4981528;28;20117;-79
2023/09/25 04:35:58;;;;;;;4.63;3.20;;;17.10;99.90;;;;;;4980824;28;20074;-80
2023/09/25 04:38:25;;;;;;;5.63;2.95;;;;;;;;;;4981175;28;20074;-80
2023/09/25 04:40:51;;;;;;;4.20;2.78;;;16.90;99.90;;;;;;4964682;28;20086;-79
2023/09/25 04:43:17;;;;;;;4.75;2.90;;;17.00;99.90;;;;;;4981493;28;20041;-79
2023/09/25 04:45:43;;;;;;;4.10;2.58;;;17.00;99.90;;;;;;4965140;28;20497;-79
2023/09/25 04:48:09;;;;;;;4.35;2.33;;;17.10;99.90;;;;;;4981883;28;20073;-79
2023/09/25 04:50:36;;;;;;;3.83;2.50;;;17.00;99.90;;;;;;4978934;28;20049;-80
2023/09/25 04:53:05;;;;;;;4.68;3.17;;;;;;;;;;4995121;28;20038;-79
2023/09/25 04:55:32;;;;;;;3.25;2.55;;;17.00;99.90;;;;;;4975146;28;20129;-79
2023/09/25 04:57:57;;;;;;;6.82;2.97;;;17.00;99.90;;;;;;4978823;28;20502;-79
2023/09/25 05:00:27;;;;;;;3.90;2.58;;;;;;;;;;4962327;28;20125;-80
2023/09/25 05:02:54;;;;;;;4.63;2.70;;;16.90;99.90;;;;;;4996807;28;20042;-79
2023/09/25 05:05:21;;;;;;;5.90;3.10;;;17.00;99.90;;;;;;4995959;28;20210;-80
2023/09/25 05:07:48;;;;;;;4.45;2.40;;;17.00;99.90;;;;;;4978517;28;20045;-78
2023/09/25 05:10:15;;;;;;;4.03;2.15;;;17.00;99.90;;;;;;4978376;28;20049;-79
2023/09/25 05:12:42;;;;;;;4.60;2.70;;;17.00;99.90;;;;;;4979646;28;20125;-79
2023/09/25 05:15:09;;;;;;;4.30;2.45;;;17.00;99.90;;;;;;4980133;28;20038;-79
2023/09/25 05:17:38;;;;;;;4.10;2.35;;;17.10;99.90;;;;;;4962577;28;20117;-79
2023/09/25 05:20:15;;;;;;;5.03;2.78;;;17.30;99.90;;;;;;4978172;28;20038;-80
2023/09/25 05:22:43;;;;;;;3.00;2.35;;;16.90;99.90;;;;;;4962002;28;20038;-79
2023/09/25 05:25:10;;;;;;;3.58;2.80;;;17.10;99.90;;;;;;4978438;28;20445;-79
2023/09/25 05:27:37;;;;;;;3.97;2.50;;;17.00;99.90;;;;;;4978226;28;20050;-79
2023/09/25 05:30:09;;;;;;;3.72;2.70;;;17.10;99.90;;;;;;4977003;28;20537;-79
2023/09/25 05:32:39;;;;;;;3.63;2.60;;;16.90;99.90;;;;;;4978628;28;20484;-80
2023/09/25 05:35:05;;;;;;;5.18;2.65;;;17.00;99.90;;;;;;4977440;28;20410;-80
2023/09/25 05:37:32;;;;;;;3.70;2.50;;;17.00;99.90;;;;;;4977877;28;20099;-79
2023/09/25 05:39:58;;;;;;;4.85;2.47;;;17.00;99.90;;;;;;4977639;28;20049;-79
2023/09/25 05:42:24;;;;;;;4.25;2.90;;;17.00;99.90;;;;;;4962481;28;20042;-79
2023/09/25 05:44:50;;;;;;;4.50;2.40;;;16.90;99.90;;;;;;4978857;28;20310;-80
2023/09/25 05:47:16;;;;;;;3.38;2.78;;;;;;;;;;4978297;28;20481;-80
2023/09/25 05:49:42;;;;;;;4.70;2.70;;;17.10;99.90;;;;;;4962123;28;20932;-80
2023/09/25 05:52:08;;;;;;;4.75;2.63;;;17.30;99.90;;;;;;4978540;28;20038;-79
2023/09/25 05:54:34;;;;;;;7.65;3.33;;;;;;;;;;4977987;28;20045;-79
2023/09/25 05:57:00;;;;;;;3.90;2.10;;;;;;;;;;4978738;28;20065;-80
2023/09/25 05:59:26;;;;;;;3.63;2.50;;;;;;;;;;4978325;28;20501;-80
2023/09/25 06:01:52;;;;;;;3.65;2.40;;;;;;;;;;4963429;28;20101;-79
2023/09/25 06:04:18;;;;;;;2.53;2.10;;;17.30;99.90;;;;;;4982128;28;20647;-80
2023/09/25 06:06:44;;;;;;;7.03;2.90;;;17.30;99.90;;;;;;4966596;28;20085;-79
2023/09/25 06:09:15;;;;;;;3.47;2.35;;;17.40;99.90;;;;;;4982926;28;20093;-80
2023/09/25 06:11:41;;;;;;;4.57;2.40;;;17.50;99.90;;;;;;4966664;28;20042;-79
2023/09/25 06:14:09;;;;;;;3.55;2.00;;;;;;;;;;4982722;28;20042;-80
2023/09/25 06:16:36;;;;;;;3.22;2.08;;;;;;;;;;4982597;28;20092;-79
2023/09/25 06:19:03;;;;;;;3.88;2.60;;;17.60;99.90;;;;;;4982254;28;20042;-79
2023/09/25 06:21:29;;;;;;;4.80;2.05;;;17.60;99.90;;;;;;4993552;28;20053;-79
2023/09/25 06:23:55;;;;;;;2.22;1.60;;;17.70;99.90;;;;;;5020352;28;20033;-79
2023/09/25 06:26:21;;;;;;;2.63;2.10;;;;;;;;;;4985748;28;20122;-80
2023/09/25 06:28:47;;;;;;;3.85;2.50;;;;;;;;;;4986107;28;20108;-79
2023/09/25 06:31:14;;;;;;;5.30;2.13;;;;;;;;;;5001841;28;20045;-79
2023/09/25 06:33:40;;;;;;;2.92;1.90;;;17.90;99.90;;;;;;5002316;28;20049;-79
2023/09/25 06:36:06;;;;;;;4.15;2.00;;;17.90;99.90;;;;;;5002125;28;20041;-79
2023/09/25 06:38:32;;;;;;;3.60;2.00;;;;;;;;;;5002005;28;20076;-79
2023/09/25 06:40:58;;;;;;;3.47;2.03;;;;;;;;;;4985600;28;20038;-79
2023/09/25 06:43:25;;;;;;;4.70;2.22;;;;;;;;;;4985891;28;20074;-80
2023/09/25 06:45:50;;;;;;;4.22;2.08;;;17.90;99.90;;;;;;5002361;28;20065;-80
2023/09/25 06:48:17;;;;;;;2.60;1.90;;;18.10;99.90;;;;;;5001849;28;20118;-78
2023/09/25 06:50:43;;;;;;;3.10;1.88;;;18.00;99.90;;;;;;5020389;28;20042;-79
2023/09/25 06:53:09;;;;;;;4.60;1.85;;;18.00;99.90;;;;;;5020693;28;20045;-79
2023/09/25 06:55:35;;;;;;;3.13;1.98;;;18.00;99.90;;;;;;5002912;28;20395;-79
2023/09/25 06:58:01;;;;;;;2.30;2.10;;;18.00;99.90;;;;;;5020287;28;20038;-80
2023/09/25 07:00:27;;;;;;;4.45;2.13;;;;;;;;;;4986064;28;20044;-80
2023/09/25 07:02:53;;;;;;;3.40;1.73;;;;;;;;;;5020207;28;20524;-80
2023/09/25 07:05:19;;;;;;;6.00;2.20;;;;;;;;;;5002917;28;20037;-79
2023/09/25 07:07:46;;;;;;;3.00;2.15;;;18.40;99.90;;;;;;5002412;28;20116;-79
2023/09/25 07:10:12;;;;;;;4.07;2.20;;;18.30;99.90;;;;;;5002849;28;20054;-80
2023/09/25 07:12:38;;;;;;;2.90;1.98;;;18.10;99.90;;;;;;4986921;28;20133;-79
2023/09/25 07:15:05;;;;;;;5.18;2.30;;;18.30;99.90;;;;;;4986869;28;20409;-80
2023/09/25 07:17:30;;;;;;;3.92;1.80;;;18.40;99.90;;;;;;5003260;28;20052;-79
2023/09/25 07:19:56;;;;;;;2.47;1.70;;;18.30;99.90;;;;;;5002643;28;20041;-79
2023/09/25 07:22:23;;;;;;;5.03;2.40;;;18.30;99.90;;;;;;5002894;28;20041;-80
2023/09/25 07:24:50;;;;;;;3.75;2.00;;;18.40;99.90;;;;;;5024775;28;20041;-79
2023/09/25 07:27:16;;;;;;;3.67;1.88;;;18.50;99.90;;;;;;5017723;28;20042;-79
2023/09/25 07:29:45;;;;;;;4.03;2.05;;;18.60;99.90;;;;;;5000491;28;20076;-80
2023/09/25 07:32:11;;;;;;;4.22;1.90;;;18.50;99.90;;;;;;4986430;28;20092;-79
2023/09/25 07:34:38;;;;;;;2.97;1.75;;;18.60;99.90;;;;;;5018623;28;20042;-80
2023/09/25 07:37:05;;;;;;;2.08;1.67;;;;;;;;;;5001518;28;20034;-80
2023/09/25 07:39:38;;;;;;;5.30;2.00;;;18.60;99.90;;;;;;5001762;28;20089;-80
2023/09/25 07:42:04;;;;;;;2.60;1.88;;;18.60;99.90;;;;;;5026934;23;20077;-70
2023/09/25 07:44:33;;;;;;;3.72;1.70;;;18.60;99.90;;;;;;5012938;28;20069;-71
2023/09/25 07:47:00;;;;;;;3.17;2.10;;;18.70;99.90;;;;;;5012534;28;20046;-70
2023/09/25 07:49:27;;;;;;;2.35;1.90;;;18.70;99.90;;;;;;5012417;28;20057;-71
2023/09/25 07:51:53;;;;;;;2.42;1.55;;;;;;;;;;5012578;28;20042;-71
2023/09/25 07:54:19;;;;;;;3.78;1.92;;;;;;;;;;5013644;28;20092;-71
2023/09/25 07:56:46;;;;;;;4.40;1.77;;;19.00;99.90;;;;;;5012654;28;20524;-71
2023/09/25 07:59:13;;;;;;;4.18;1.77;;;19.00;99.90;;;;;;5012359;28;20042;-71
2023/09/25 08:01:39;;;;;;;4.05;1.80;;;19.00;99.90;;;;;;5012552;28;20034;-71
2023/09/25 08:04:05;;;;;;;2.88;1.77;;;19.10;99.90;;;;;;5028874;28;20034;-71
2023/09/25 08:06:31;;;;;;;2.78;1.70;;;19.00;99.90;;;;;;5012264;28;20034;-71
2023/09/25 08:08:57;;;;;;;3.35;1.63;;;19.20;99.90;;;;;;5013634;28;20045;-72
2023/09/25 08:11:24;;;;;;;3.08;1.80;;;19.20;99.90;;;;;;5012387;28;20030;-70
2023/09/25 08:13:50;;;;;;;3.63;2.05;;;19.20;99.90;;;;;;5012365;28;20081;-71
2023/09/25 08:16:22;;;;;;;5.40;2.25;;;19.30;99.90;;;;;;5028752;28;20042;-71
2023/09/25 08:18:48;;;;;;;3.25;1.70;;;19.60;99.90;;;;;;5028702;28;20049;-71
2023/09/25 08:21:14;;;;;;;3.78;1.92;;;;;;;;;;5028549;28;20042;-70
2023/09/25 08:23:40;;;;;;;4.35;2.20;;;;;;;;;;5011800;28;20045;-70
2023/09/25 08:26:06;;;;;;;2.75;1.83;;;;;;;;;;5010909;28;20046;-71
2023/09/25 08:28:33;;;;;;;6.40;2.05;;;19.80;99.90;;;;;;5011655;28;20042;-71
2023/09/25 08:30:59;;;;;;;3.38;1.70;;;19.70;99.90;;;;;;5012048;28;20477;-71
2023/09/25 08:33:25;;;;;;;4.55;1.70;;;19.80;99.90;;;;;;5012948;28;20037;-71
2023/09/25 08:35:52;;;;;;;3.30;1.70;;;19.80;99.90;;;;;;5011647;28;20414;-70
2023/09/25 08:38:17;;;;;;;7.88;1.80;;;20.00;99.90;;;;;;5011480;28;20116;-69
2023/09/25 08:40:49;;;;;;;3.65;1.88;;;19.90;99.90;;;;;;5011835;28;20112;-71
2023/09/25 08:43:15;;;;;;;3.80;1.98;;;20.00;99.90;;;;;;5027874;28;20587;-71
2023/09/25 08:45:43;;;;;;;7.40;1.88;;;20.30;99.90;;;;;;5012902;28;20081;-71
2023/09/25 08:48:13;;;;;;;7.07;2.70;;;20.00;99.90;;;;;;5011602;28;20046;-71
2023/09/25 08:50:39;;;;;;;3.65;1.90;;;20.10;99.90;;;;;;5011242;28;20120;-71
2023/09/25 08:53:06;;;;;;;3.47;1.80;;;;;;;;;;5011384;28;20535;-71
2023/09/25 08:55:33;;;;;;;4.78;2.10;;;20.20;99.90;;;;;;5011332;28;20041;-71
2023/09/25 08:58:00;;;;;;;5.07;1.90;;;20.30;99.90;;;;;;5011522;28;20108;-71
2023/09/25 09:00:27;;;;;;;5.15;1.85;;;20.30;99.90;;;;;;5011028;28;20040;-71
2023/09/25 09:02:53;;;;;;;4.60;1.80;;;20.40;99.90;;;;;;5011065;28;20042;-71
2023/09/25 09:05:19;;;;;;;4.85;1.58;;;20.60;99.90;;;;;;5011223;28;20042;-72
2023/09/25 09:08:06;;;;;;;3.72;1.75;;;20.40;99.90;;;;;;5027708;28;20509;-72
2023/09/25 09:10:37;;;;;;;3.47;1.80;;;20.50;99.90;;;;;;5011340;28;20085;-71
2023/09/25 09:13:09;;;;;;;4.70;2.10;;;20.60;99.90;;;;;;5027351;28;20081;-71
2023/09/25 09:15:35;;;;;;;3.25;1.65;;;20.50;99.90;;;;;;5027483;28;20133;-71
2023/09/25 09:18:20;;;;;;;4.70;2.10;;;20.60;99.90;;;;;;5010908;28;20120;-71
2023/09/25 09:20:46;;;;;;;3.63;1.80;;;20.60;99.90;;;;;;5010978;28;20454;-70
2023/09/25 09:23:11;;;;;;;2.65;1.92;;;20.90;99.90;;;;;;5011003;28;20072;-72
2023/09/25 09:25:37;;;;;;;2.60;1.73;;;21.10;99.90;;;;;;5010890;28;20037;-71
2023/09/25 09:28:07;;;;;;;4.05;2.05;;;21.00;99.90;;;;;;5010763;28;20042;-69
2023/09/25 09:30:33;;;;;;;2.65;1.60;;;21.10;99.90;;;;;;5010886;28;20053;-70
2023/09/25 09:32:59;;;;;;;3.92;1.90;;;21.30;99.90;;;;;;5010754;28;20049;-70
2023/09/25 09:35:25;;;;;;;3.92;1.83;;;21.30;99.90;;;;;;5027033;28;20073;-71
2023/09/25 09:37:58;;;;;;;3.55;1.77;;;21.50;99.90;;;;;;5010543;28;20038;-72
2023/09/25 09:40:25;;;;;;;2.67;1.95;;;21.30;99.90;;;;;;5010638;28;20096;-71
2023/09/25 09:42:52;;;;;;;2.88;1.67;;;21.50;99.90;;;;;;5010727;28;20041;-71
2023/09/25 09:45:18;;;;;;;4.32;1.85;;;21.20;99.90;;;;;;5010610;28;20045;-71
2023/09/25 09:47:46;;;;;;;4.60;2.13;;;21.50;99.90;;;;;;5010708;28;20037;-72
2023/09/25 09:50:12;;;;;;;2.90;1.77;;;21.60;99.90;;;;;;5027044;28;20081;-71
2023/09/25 09:52:39;;;;;;;2.85;1.75;;;21.60;99.90;;;;;;5010467;28;20041;-68
2023/09/25 09:55:10;;;;;;;3.78;1.50;;;21.60;99.90;;;;;;5010330;28;20050;-71
2023/09/25 09:57:37;;;;;;;3.83;1.60;;;21.90;99.90;;;;;;5027214;28;20080;-71
2023/09/25 10:00:06;;;;;;;6.65;2.47;;;21.90;99.90;;;;;;5010677;28;20104;-70
2023/09/25 10:02:32;;;;;;;2.72;2.10;;;22.00;99.90;;;;;;5011739;28;20053;-71
2023/09/25 10:04:58;;;;;;;3.92;1.42;;;22.00;99.90;;;;;;5026914;28;20077;-71
2023/09/25 10:07:24;;;;;;;2.63;1.90;;;22.00;99.90;;;;;;5010535;28;20042;-70
2023/09/25 10:09:58;;;;;;;3.50;1.95;;;22.00;99.90;;;;;;5011487;28;20033;-69
2023/09/25 10:12:41;;;;;;;3.75;1.70;;;22.10;99.90;;;;;;5010270;28;20045;-70
2023/09/25 10:15:12;;;;;;;3.65;1.92;;;22.50;99.90;;;;;;5010320;28;20046;-70
2023/09/25 10:17:46;;;;;;;2.83;2.20;;;22.40;99.90;;;;;;5010540;28;20401;-70
2023/09/25 10:20:45;;;;;;;4.38;1.77;;;22.20;99.90;;;;;;5010067;28;20065;-70
2023/09/25 10:23:24;;;;;;;3.40;1.92;;;22.50;99.90;;;;;;5009733;28;20125;-69
2023/09/25 10:25:52;;;;;;;6.10;1.90;;;22.30;99.90;;;;;;5010542;28;20046;-70
2023/09/25 10:28:23;;;;;;;2.97;1.90;;;22.30;99.90;;;;;;5010396;28;20405;-68
2023/09/25 10:30:55;;;;;;;5.43;2.20;;;22.80;99.90;;;;;;5010488;28;20516;-70
2023/09/25 10:33:20;;;;;;;6.65;2.13;;;22.70;99.90;;;;;;5011532;28;20109;-70
2023/09/25 10:35:50;;;;;;;4.47;2.15;;;22.60;99.90;;;;;;5026543;28;20640;-70
2023/09/25 10:38:26;;;;;;;4.82;1.77;;;22.80;99.90;;;;;;5010459;28;20521;-70
2023/09/25 10:40:56;;;;;;;5.18;1.60;;;23.00;99.90;;;;;;5026467;28;20180;-69
2023/09/25 10:43:23;;;;;;;5.80;2.10;;;23.00;99.90;;;;;;5009987;28;20080;-71
2023/09/25 10:45:52;;;;;;;3.70;2.20;;;23.20;99.90;;;;;;5026511;28;20042;-71
2023/09/25 10:48:18;;;;;;;3.22;2.00;;;22.50;99.90;;;;;;5010621;28;20052;-68
2023/09/25 10:50:44;;;;;;;2.78;1.95;;;23.30;99.90;;;;;;5013730;28;20416;-71
2023/09/25 10:53:10;;;;;;;5.30;2.53;;;23.30;99.90;;;;;;5013567;28;20501;-70
2023/09/25 10:55:37;;;;;;;5.93;2.08;;;23.30;99.90;;;;;;5013767;28;20038;-70
2023/09/25 10:58:05;;;;;;;4.25;2.00;;;23.20;99.90;;;;;;5013690;28;20405;-69
2023/09/25 11:00:34;;;;;;;3.33;2.03;;;23.40;99.90;;;;;;5013625;28;20044;-71
2023/09/25 11:03:04;;;;;;;3.55;1.60;;;23.90;99.90;;;;;;5014152;28;20393;-71
2023/09/25 11:05:31;;;;;;;3.90;1.98;;;23.50;99.90;;;;;;5030231;28;20056;-71
2023/09/25 11:07:57;;;;;;;3.67;1.73;;;23.80;99.90;;;;;;5030289;28;20387;-70
2023/09/25 11:10:34;;;;;;;6.43;2.00;;;23.70;99.90;;;;;;5029986;28;20140;-69
2023/09/25 11:13:00;;;;;;;5.05;2.50;;;23.90;99.90;;;;;;5013694;28;20056;-71
2023/09/25 11:15:33;;;;;;;2.42;1.52;;;23.80;99.90;;;;;;5029940;28;20233;-71
2023/09/25 11:17:59;;;;;;;;;;;24.10;99.90;;;;;;5030244;28;20045;-70
2023/09/25 11:20:32;;;;;;;3.85;1.80;;;23.90;99.90;;;;;;5013273;28;19921;-71
2023/09/25 11:23:08;;;;;;;5.10;1.80;;;23.90;99.90;;;;;;5013050;28;20034;-70
2023/09/25 11:25:44;;;;;;;3.72;2.08;;;24.30;99.90;;;;;;5012914;28;20560;-71
2023/09/25 11:28:13;;;;;;;3.97;1.83;;;24.00;99.90;;;;;;5014301;28;20088;-72
2023/09/25 11:30:40;;;;;;;3.92;1.63;;;24.40;99.90;;;;;;5012873;28;20444;-72
2023/09/25 11:33:07;;;;;;;5.38;1.92;;;24.30;99.90;;;;;;5013060;28;20136;-70
2023/09/25 11:35:39;;;;;;;7.88;2.67;;;24.10;99.90;;;;;;5012716;28;20125;-70
2023/09/25 11:38:18;;;;;;;4.75;2.13;;;24.10;99.90;;;;;;5012819;28;20042;-71
2023/09/25 11:40:45;;;;;;;2.92;2.10;;;24.00;99.90;;;;;;5012996;28;20034;-72
2023/09/25 11:43:11;;;;;;;6.50;2.15;;;24.20;99.90;;;;;;5012763;28;20397;-70
2023/09/25 11:45:38;;;;;;;6.10;2.35;;;24.00;99.90;;;;;;5012710;28;20045;-70
2023/09/25 11:48:04;;;;;;;2.83;2.10;;;24.20;99.90;;;;;;5029098;28;20076;-71
2023/09/25 11:50:30;;;;;;;3.35;1.98;;;24.20;99.90;;;;;;5028865;28;20069;-71
2023/09/25 11:52:56;;;;;;;7.32;2.75;;;24.30;99.90;;;;;;5029315;28;20038;-72
2023/09/25 11:55:21;;;;;;;3.65;1.83;;;24.30;99.90;;;;;;5013572;28;20468;-72
2023/09/25 11:57:48;;;;;;;5.35;2.10;;;24.20;99.90;;;;;;5012546;28;20073;-72
2023/09/25 12:00:18;;;;;;;4.78;2.55;;;24.30;99.90;;;;;;5027495;28;20045;-70
2023/09/25 12:02:48;;;;;;;4.95;2.25;;;24.30;99.90;;;;;;5012532;28;20030;-70
2023/09/25 12:05:17;;;;;;;5.05;2.33;;;24.40;99.90;;;;;;5012579;28;20362;-70
2023/09/25 12:07:43;;;;;;;3.70;2.25;;;24.00;99.90;;;;;;5012230;28;20525;-71
2023/09/25 12:10:12;;;;;;;5.15;2.70;;;24.10;99.90;;;;;;5028594;28;20046;-70
2023/09/25 12:12:41;;;;;;;5.03;2.25;;;24.30;99.90;;;;;;5012032;28;20125;-70
2023/09/25 12:15:08;;;;;;;3.20;1.85;;;24.10;99.90;;;;;;5012127;28;20460;-71
2023/09/25 12:17:37;;;;;;;3.50;1.88;;;24.30;99.90;;;;;;5012022;28;20041;-70
2023/09/25 12:20:13;;;;;;;3.47;1.70;;;24.20;99.90;;;;;;5011950;28;20042;-71
2023/09/25 12:22:44;;;;;;;5.68;2.42;;;24.60;99.90;;;;;;5011875;28;20046;-70
2023/09/25 12:25:13;;;;;;;4.53;1.85;;;24.90;99.90;;;;;;5011927;28;20053;-70
2023/09/25 12:27:44;;;;;;;4.47;2.22;;;24.80;99.90;;;;;;5011995;28;20549;-71
2023/09/25 12:30:12;;;;;;;3.42;2.00;;;24.60;99.90;;;;;;5011948;28;20065;-71
2023/09/25 12:32:39;;;;;;;2.65;1.52;;;24.90;99.90;;;;;;5011761;28;20049;-71
2023/09/25 12:35:06;;;;;;;4.15;2.38;;;24.70;99.90;;;;;;5011850;28;20520;-71
2023/09/25 12:37:31;;;;;;;4.90;2.17;;;24.90;99.90;;;;;;5027945;28;20034;-71
2023/09/25 12:39:57;;;;;;;3.72;2.53;;;24.90;99.90;;;;;;5011363;28;20040;-71
2023/09/25 12:42:23;;;;;;;5.85;2.08;;;24.90;99.90;;;;;;5011683;28;20038;-70
2023/09/25 12:44:49;;;;;;;4.72;2.25;;;24.80;99.90;;;;;;5011857;28;20571;-71
2023/09/25 12:47:15;;;;;;;5.57;1.90;;;24.90;99.90;;;;;;5011482;28;20137;-70
2023/09/25 12:49:41;;;;;;;3.38;1.83;;;25.10;99.90;;;;;;5011335;28;20120;-71
2023/09/25 12:52:07;;;;;;;4.63;1.95;;;25.10;99.90;;;;;;5012476;28;20038;-71
2023/09/25 12:54:33;;;;;;;3.45;1.92;;;25.10;99.90;;;;;;5011282;28;20038;-71
2023/09/25 12:56:58;;;;;;;5.40;1.58;;;25.10;99.90;;;;;;5011301;28;20382;-70
2023/09/25 12:59:24;;;;;;;3.90;2.53;;;25.30;99.90;;;;;;5011128;28;20073;-70
2023/09/25 13:01:49;;;;;;;6.20;2.50;;;25.20;99.90;;;;;;5012516;28;20060;-71
2023/09/25 13:04:15;;;;;;;3.08;1.75;;;25.20;99.90;;;;;;5027691;28;20038;-71